sensor_id;sensor_type;location;lat;lon;timestamp;pressure;altitude;pressure_sealevel;temperature;humidity
29063;BME280;71206;48.564;-123.458;2023-12-20T00:01:17;99665.97;;;10.43;100.00
29063;BME280;71206;48.564;-123.458;2023-12-20T00:03:42;99668.32;;;11.09;100.00
29063;BME280;71206;48.564;-123.458;2023-12-20T00:06:07;99668.26;;;10.68;100.00
29063;BME280;71206;48.564;-123.458;2023-12-20T00:08:32;99668.94;;;10.73;100.00
29063;BME280;71206;48.564;-123.458;2023-12-20T00:10:58;99670.63;;;11.44;100.00
29063;BME280;71206;48.564;-123.458;2023-12-20T00:13:29;99674.73;;;10.92;100.00
29063;BME280;71206;48.564;-123.458;2023-12-20T00:15:49;99675.91;;;10.98;100.00
29063;BME280;71206;48.564;-123.458;2023-12-20T00:18:14;99680.81;;;10.79;100.00
29063;BME280;71206;48.564;-123.458;2023-12-20T00:20:40;99686.03;;;10.86;100.00
29063;BME280;71206;48.564;-123.458;2023-12-20T00:23:05;99692.35;;;10.40;100.00
29063;BME280;71206;48.564;-123.458;2023-12-20T00:25:34;99696.20;;;10.86;100.00
29063;BME280;71206;48.564;-123.458;2023-12-20T00:27:55;99699.73;;;10.89;100.00
29063;BME280;71206;48.564;-123.458;2023-12-20T00:30:21;99707.02;;;10.47;100.00
29063;BME280;71206;48.564;-123.458;2023-12-20T00:32:50;99708.27;;;10.66;100.00
29063;BME280;71206;48.564;-123.458;2023-12-20T00:35:12;99712.05;;;10.98;100.00
29063;BME280;71206;48.564;-123.458;2023-12-20T00:37:39;99717.94;;;10.66;100.00
29063;BME280;71206;48.564;-123.458;2023-12-20T00:40:05;99723.78;;;10.53;100.00
29063;BME280;71206;48.564;-123.458;2023-12-20T00:42:30;99728.37;;;11.01;100.00
29063;BME280;71206;48.564;-123.458;2023-12-20T00:44:54;99722.68;;;10.71;100.00
29063;BME280;71206;48.564;-123.458;2023-12-20T00:47:20;99721.43;;;10.37;100.00
29063;BME280;71206;48.564;-123.458;2023-12-20T00:49:46;99721.41;;;10.88;100.00
29063;BME280;71206;48.564;-123.458;2023-12-20T00:52:11;99718.08;;;11.07;100.00
29063;BME280;71206;48.564;-123.458;2023-12-20T00:54:36;99717.62;;;10.75;100.00
29063;BME280;71206;48.564;-123.458;2023-12-20T00:57:02;99725.51;;;11.27;100.00
29063;BME280;71206;48.564;-123.458;2023-12-20T00:59:31;99742.53;;;10.09;100.00
29063;BME280;71206;48.564;-123.458;2023-12-20T01:01:52;99750.48;;;10.19;100.00
29063;BME280;71206;48.564;-123.458;2023-12-20T01:04:17;99755.79;;;10.13;100.00
29063;BME280;71206;48.564;-123.458;2023-12-20T01:06:44;99750.95;;;10.50;100.00
29063;BME280;71206;48.564;-123.458;2023-12-20T01:09:10;99752.32;;;10.53;100.00
29063;BME280;71206;48.564;-123.458;2023-12-20T01:11:34;99759.04;;;10.17;100.00
29063;BME280;71206;48.564;-123.458;2023-12-20T01:14:00;99761.87;;;10.16;100.00
29063;BME280;71206;48.564;-123.458;2023-12-20T01:16:25;99763.00;;;10.36;100.00
29063;BME280;71206;48.564;-123.458;2023-12-20T01:18:50;99763.48;;;10.26;100.00
29063;BME280;71206;48.564;-123.458;2023-12-20T01:21:15;99765.95;;;10.32;100.00
29063;BME280;71206;48.564;-123.458;2023-12-20T01:23:41;99770.80;;;10.48;100.00
29063;BME280;71206;48.564;-123.458;2023-12-20T01:26:06;99777.05;;;10.50;100.00
29063;BME280;71206;48.564;-123.458;2023-12-20T01:28:31;99774.87;;;10.93;100.00
29063;BME280;71206;48.564;-123.458;2023-12-20T01:30:58;99770.69;;;11.28;100.00
29063;BME280;71206;48.564;-123.458;2023-12-20T01:33:25;99781.62;;;10.49;100.00
29063;BME280;71206;48.564;-123.458;2023-12-20T01:35:50;99781.96;;;10.17;100.00
29063;BME280;71206;48.564;-123.458;2023-12-20T01:38:14;99778.07;;;11.08;100.00
29063;BME280;71206;48.564;-123.458;2023-12-20T01:40:40;99782.91;;;10.51;100.00
29063;BME280;71206;48.564;-123.458;2023-12-20T01:43:08;99786.01;;;10.40;100.00
29063;BME280;71206;48.564;-123.458;2023-12-20T01:45:34;99792.28;;;10.16;100.00
29063;BME280;71206;48.564;-123.458;2023-12-20T01:47:58;99791.74;;;10.80;100.00
29063;BME280;71206;48.564;-123.458;2023-12-20T01:50:22;99797.62;;;10.67;100.00
29063;BME280;71206;48.564;-123.458;2023-12-20T01:52:47;99800.28;;;10.74;100.00
29063;BME280;71206;48.564;-123.458;2023-12-20T01:55:13;99805.76;;;10.83;100.00
29063;BME280;71206;48.564;-123.458;2023-12-20T01:57:41;99814.65;;;10.51;100.00
29063;BME280;71206;48.564;-123.458;2023-12-20T02:00:05;99818.20;;;10.51;100.00
29063;BME280;71206;48.564;-123.458;2023-12-20T02:02:30;99817.23;;;10.48;100.00
29063;BME280;71206;48.564;-123.458;2023-12-20T02:04:56;99816.12;;;10.89;100.00
29063;BME280;71206;48.564;-123.458;2023-12-20T02:07:21;99817.84;;;10.61;100.00
29063;BME280;71206;48.564;-123.458;2023-12-20T02:09:47;99815.92;;;10.64;100.00
29063;BME280;71206;48.564;-123.458;2023-12-20T02:12:13;99818.04;;;10.48;100.00
29063;BME280;71206;48.564;-123.458;2023-12-20T02:14:37;99813.63;;;10.94;100.00
29063;BME280;71206;48.564;-123.458;2023-12-20T02:17:03;99809.01;;;11.10;100.00
29063;BME280;71206;48.564;-123.458;2023-12-20T02:19:29;99816.90;;;10.59;100.00
29063;BME280;71206;48.564;-123.458;2023-12-20T02:22:07;99822.43;;;10.77;100.00
29063;BME280;71206;48.564;-123.458;2023-12-20T02:24:19;99820.77;;;11.24;100.00
29063;BME280;71206;48.564;-123.458;2023-12-20T02:26:44;99829.01;;;11.23;100.00
29063;BME280;71206;48.564;-123.458;2023-12-20T02:29:09;99829.07;;;11.15;100.00
29063;BME280;71206;48.564;-123.458;2023-12-20T02:31:34;99830.55;;;11.17;100.00
29063;BME280;71206;48.564;-123.458;2023-12-20T02:33:59;99838.01;;;10.80;100.00
29063;BME280;71206;48.564;-123.458;2023-12-20T02:36:25;99834.62;;;11.09;100.00
29063;BME280;71206;48.564;-123.458;2023-12-20T02:38:51;99839.80;;;11.15;100.00
29063;BME280;71206;48.564;-123.458;2023-12-20T02:41:15;99844.82;;;10.57;100.00
29063;BME280;71206;48.564;-123.458;2023-12-20T02:43:40;99851.28;;;10.86;100.00
29063;BME280;71206;48.564;-123.458;2023-12-20T02:46:07;99853.97;;;10.61;100.00
29063;BME280;71206;48.564;-123.458;2023-12-20T02:48:33;99858.94;;;10.78;100.00
29063;BME280;71206;48.564;-123.458;2023-12-20T02:50:57;99862.10;;;11.32;100.00
29063;BME280;71206;48.564;-123.458;2023-12-20T02:53:22;99870.44;;;11.21;100.00
29063;BME280;71206;48.564;-123.458;2023-12-20T02:55:47;99874.47;;;10.80;100.00
29063;BME280;71206;48.564;-123.458;2023-12-20T02:58:12;99875.47;;;10.64;100.00
29063;BME280;71206;48.564;-123.458;2023-12-20T03:00:42;99880.59;;;10.48;100.00
29063;BME280;71206;48.564;-123.458;2023-12-20T03:03:04;99886.99;;;10.93;100.00
29063;BME280;71206;48.564;-123.458;2023-12-20T03:05:31;99893.09;;;10.61;100.00
29063;BME280;71206;48.564;-123.458;2023-12-20T03:07:58;99900.64;;;10.75;100.00
29063;BME280;71206;48.564;-123.458;2023-12-20T03:10:20;99906.11;;;10.55;100.00
29063;BME280;71206;48.564;-123.458;2023-12-20T03:12:46;99910.30;;;10.43;100.00
29063;BME280;71206;48.564;-123.458;2023-12-20T03:15:11;99911.43;;;10.33;100.00
29063;BME280;71206;48.564;-123.458;2023-12-20T03:17:36;99910.58;;;10.19;100.00
29063;BME280;71206;48.564;-123.458;2023-12-20T03:20:03;99914.58;;;10.08;100.00
29063;BME280;71206;48.564;-123.458;2023-12-20T03:22:31;99918.80;;;10.98;100.00
29063;BME280;71206;48.564;-123.458;2023-12-20T03:24:53;99921.90;;;11.14;100.00
29063;BME280;71206;48.564;-123.458;2023-12-20T03:27:18;99924.62;;;10.83;100.00
29063;BME280;71206;48.564;-123.458;2023-12-20T03:29:43;99930.06;;;10.92;100.00
29063;BME280;71206;48.564;-123.458;2023-12-20T03:32:08;99929.57;;;11.14;100.00
29063;BME280;71206;48.564;-123.458;2023-12-20T03:34:34;99930.92;;;10.87;100.00
29063;BME280;71206;48.564;-123.458;2023-12-20T03:36:59;99925.44;;;10.49;100.00
29063;BME280;71206;48.564;-123.458;2023-12-20T03:39:25;99926.73;;;10.18;100.00
29063;BME280;71206;48.564;-123.458;2023-12-20T03:41:52;99926.89;;;9.93;100.00
29063;BME280;71206;48.564;-123.458;2023-12-20T03:44:16;99933.72;;;10.54;100.00
29063;BME280;71206;48.564;-123.458;2023-12-20T03:46:42;99935.96;;;11.14;100.00
29063;BME280;71206;48.564;-123.458;2023-12-20T03:49:12;99936.66;;;10.57;100.00
29063;BME280;71206;48.564;-123.458;2023-12-20T03:51:33;99939.02;;;11.09;100.00
29063;BME280;71206;48.564;-123.458;2023-12-20T03:53:58;99942.81;;;11.24;100.00
29063;BME280;71206;48.564;-123.458;2023-12-20T03:56:23;99939.00;;;11.83;100.00
29063;BME280;71206;48.564;-123.458;2023-12-20T03:58:49;99945.25;;;11.01;100.00
29063;BME280;71206;48.564;-123.458;2023-12-20T04:01:14;99949.12;;;10.55;100.00
29063;BME280;71206;48.564;-123.458;2023-12-20T04:03:40;99953.64;;;10.67;100.00
29063;BME280;71206;48.564;-123.458;2023-12-20T04:06:05;99959.08;;;10.47;100.00
29063;BME280;71206;48.564;-123.458;2023-12-20T04:08:30;99960.23;;;10.53;100.00
29063;BME280;71206;48.564;-123.458;2023-12-20T04:10:55;99963.81;;;11.14;100.00
29063;BME280;71206;48.564;-123.458;2023-12-20T04:13:21;99967.07;;;10.78;100.00
29063;BME280;71206;48.564;-123.458;2023-12-20T04:15:47;99965.21;;;10.66;100.00
29063;BME280;71206;48.564;-123.458;2023-12-20T04:18:11;99965.42;;;10.67;100.00
29063;BME280;71206;48.564;-123.458;2023-12-20T04:20:39;99967.47;;;10.25;100.00
29063;BME280;71206;48.564;-123.458;2023-12-20T04:23:02;99969.81;;;10.38;100.00
29063;BME280;71206;48.564;-123.458;2023-12-20T04:25:27;99974.03;;;10.60;100.00
29063;BME280;71206;48.564;-123.458;2023-12-20T04:27:53;99975.65;;;10.53;100.00
29063;BME280;71206;48.564;-123.458;2023-12-20T04:30:19;99978.15;;;10.49;100.00
29063;BME280;71206;48.564;-123.458;2023-12-20T04:32:45;99984.53;;;11.24;100.00
29063;BME280;71206;48.564;-123.458;2023-12-20T04:35:09;99990.71;;;11.44;100.00
29063;BME280;71206;48.564;-123.458;2023-12-20T04:37:35;99998.18;;;10.84;100.00
29063;BME280;71206;48.564;-123.458;2023-12-20T04:40:00;100005.00;;;10.44;100.00
29063;BME280;71206;48.564;-123.458;2023-12-20T04:42:26;100014.95;;;10.87;100.00
29063;BME280;71206;48.564;-123.458;2023-12-20T04:44:50;100022.15;;;10.76;100.00
29063;BME280;71206;48.564;-123.458;2023-12-20T04:47:16;100024.70;;;10.63;100.00
29063;BME280;71206;48.564;-123.458;2023-12-20T04:49:42;100026.70;;;10.44;100.00
29063;BME280;71206;48.564;-123.458;2023-12-20T04:52:07;100032.31;;;10.40;100.00
29063;BME280;71206;48.564;-123.458;2023-12-20T04:54:35;100036.10;;;10.05;100.00
29063;BME280;71206;48.564;-123.458;2023-12-20T04:56:59;100033.61;;;9.99;100.00
29063;BME280;71206;48.564;-123.458;2023-12-20T04:59:24;100035.58;;;10.00;100.00
29063;BME280;71206;48.564;-123.458;2023-12-20T05:01:50;100041.91;;;10.16;100.00
29063;BME280;71206;48.564;-123.458;2023-12-20T05:04:15;100046.82;;;10.29;100.00
29063;BME280;71206;48.564;-123.458;2023-12-20T05:06:41;100052.39;;;10.08;100.00
29063;BME280;71206;48.564;-123.458;2023-12-20T05:09:11;100055.15;;;9.70;100.00
29063;BME280;71206;48.564;-123.458;2023-12-20T05:11:31;100056.67;;;10.42;100.00
29063;BME280;71206;48.564;-123.458;2023-12-20T05:13:57;100060.47;;;10.25;100.00
29063;BME280;71206;48.564;-123.458;2023-12-20T05:16:22;100059.82;;;10.04;100.00
29063;BME280;71206;48.564;-123.458;2023-12-20T05:18:49;100059.20;;;10.12;100.00
29063;BME280;71206;48.564;-123.458;2023-12-20T05:21:19;100060.87;;;10.35;100.00
29063;BME280;71206;48.564;-123.458;2023-12-20T05:23:39;100059.71;;;10.38;100.00
29063;BME280;71206;48.564;-123.458;2023-12-20T05:26:05;100060.99;;;10.61;100.00
29063;BME280;71206;48.564;-123.458;2023-12-20T05:28:30;100062.80;;;10.86;100.00
29063;BME280;71206;48.564;-123.458;2023-12-20T05:30:56;100064.83;;;10.54;100.00
29063;BME280;71206;48.564;-123.458;2023-12-20T05:33:21;100070.98;;;9.92;100.00
29063;BME280;71206;48.564;-123.458;2023-12-20T05:35:48;100071.31;;;9.78;100.00
29063;BME280;71206;48.564;-123.458;2023-12-20T05:38:12;100078.38;;;10.01;100.00
29063;BME280;71206;48.564;-123.458;2023-12-20T05:40:38;100080.13;;;10.29;100.00
29063;BME280;71206;48.564;-123.458;2023-12-20T05:43:03;100082.21;;;10.44;100.00
29063;BME280;71206;48.564;-123.458;2023-12-20T05:45:29;100089.21;;;10.73;100.00
29063;BME280;71206;48.564;-123.458;2023-12-20T05:47:54;100093.10;;;10.73;100.00
29063;BME280;71206;48.564;-123.458;2023-12-20T05:50:20;100095.69;;;10.77;100.00
29063;BME280;71206;48.564;-123.458;2023-12-20T05:52:48;100094.34;;;10.54;100.00
29063;BME280;71206;48.564;-123.458;2023-12-20T05:55:12;100094.98;;;10.95;100.00
29063;BME280;71206;48.564;-123.458;2023-12-20T05:57:37;100093.25;;;10.72;100.00
29063;BME280;71206;48.564;-123.458;2023-12-20T06:00:03;100101.60;;;10.28;100.00
29063;BME280;71206;48.564;-123.458;2023-12-20T06:02:29;100110.52;;;10.22;100.00
29063;BME280;71206;48.564;-123.458;2023-12-20T06:04:54;100114.75;;;10.25;100.00
29063;BME280;71206;48.564;-123.458;2023-12-20T06:07:19;100121.19;;;10.60;100.00
29063;BME280;71206;48.564;-123.458;2023-12-20T06:09:45;100125.92;;;10.42;100.00
29063;BME280;71206;48.564;-123.458;2023-12-20T06:12:10;100124.62;;;10.30;100.00
29063;BME280;71206;48.564;-123.458;2023-12-20T06:14:36;100127.57;;;10.50;100.00
29063;BME280;71206;48.564;-123.458;2023-12-20T06:17:01;100121.10;;;10.51;100.00
29063;BME280;71206;48.564;-123.458;2023-12-20T06:19:27;100123.50;;;10.19;100.00
29063;BME280;71206;48.564;-123.458;2023-12-20T06:21:52;100127.20;;;9.83;100.00
29063;BME280;71206;48.564;-123.458;2023-12-20T06:24:21;100132.92;;;9.99;100.00
29063;BME280;71206;48.564;-123.458;2023-12-20T06:26:43;100134.31;;;9.85;100.00
29063;BME280;71206;48.564;-123.458;2023-12-20T06:29:08;100136.33;;;10.06;100.00
29063;BME280;71206;48.564;-123.458;2023-12-20T06:31:33;100139.00;;;9.90;100.00
29063;BME280;71206;48.564;-123.458;2023-12-20T06:33:59;100138.56;;;9.70;100.00
29063;BME280;71206;48.564;-123.458;2023-12-20T06:36:24;100141.38;;;9.81;100.00
29063;BME280;71206;48.564;-123.458;2023-12-20T06:38:51;100145.22;;;9.46;100.00
29063;BME280;71206;48.564;-123.458;2023-12-20T06:41:16;100153.32;;;9.97;100.00
29063;BME280;71206;48.564;-123.458;2023-12-20T06:43:40;100158.24;;;10.03;100.00
29063;BME280;71206;48.564;-123.458;2023-12-20T06:46:06;100162.46;;;9.57;100.00
29063;BME280;71206;48.564;-123.458;2023-12-20T06:48:32;100169.10;;;9.84;100.00
29063;BME280;71206;48.564;-123.458;2023-12-20T06:50:57;100172.77;;;10.17;100.00
29063;BME280;71206;48.564;-123.458;2023-12-20T06:53:23;100174.45;;;9.87;100.00
29063;BME280;71206;48.564;-123.458;2023-12-20T06:55:48;100180.21;;;9.84;100.00
29063;BME280;71206;48.564;-123.458;2023-12-20T06:58:14;100182.42;;;9.95;100.00
29063;BME280;71206;48.564;-123.458;2023-12-20T07:00:38;100181.59;;;10.07;100.00
29063;BME280;71206;48.564;-123.458;2023-12-20T07:03:05;100182.97;;;9.92;100.00
29063;BME280;71206;48.564;-123.458;2023-12-20T07:05:30;100181.67;;;10.22;100.00
29063;BME280;71206;48.564;-123.458;2023-12-20T07:07:56;100181.17;;;10.09;100.00
29063;BME280;71206;48.564;-123.458;2023-12-20T07:10:22;100181.01;;;9.99;100.00
29063;BME280;71206;48.564;-123.458;2023-12-20T07:12:47;100184.18;;;10.47;100.00
29063;BME280;71206;48.564;-123.458;2023-12-20T07:15:13;100188.71;;;10.02;100.00
29063;BME280;71206;48.564;-123.458;2023-12-20T07:17:38;100190.20;;;10.13;100.00
29063;BME280;71206;48.564;-123.458;2023-12-20T07:20:07;100192.96;;;10.16;100.00
29063;BME280;71206;48.564;-123.458;2023-12-20T07:22:29;100197.24;;;10.31;100.00
29063;BME280;71206;48.564;-123.458;2023-12-20T07:24:55;100196.74;;;10.21;100.00
29063;BME280;71206;48.564;-123.458;2023-12-20T07:27:20;100197.20;;;10.30;100.00
29063;BME280;71206;48.564;-123.458;2023-12-20T07:29:45;100198.75;;;10.04;100.00
29063;BME280;71206;48.564;-123.458;2023-12-20T07:32:11;100198.36;;;9.97;100.00
29063;BME280;71206;48.564;-123.458;2023-12-20T07:34:38;100201.55;;;10.15;100.00
29063;BME280;71206;48.564;-123.458;2023-12-20T07:37:02;100203.42;;;9.97;100.00
29063;BME280;71206;48.564;-123.458;2023-12-20T07:39:28;100203.45;;;9.91;100.00
29063;BME280;71206;48.564;-123.458;2023-12-20T07:41:58;100205.14;;;9.77;100.00
29063;BME280;71206;48.564;-123.458;2023-12-20T07:44:19;100206.25;;;10.29;100.00
29063;BME280;71206;48.564;-123.458;2023-12-20T07:46:45;100206.39;;;10.16;100.00
29063;BME280;71206;48.564;-123.458;2023-12-20T07:49:10;100206.17;;;10.23;100.00
29063;BME280;71206;48.564;-123.458;2023-12-20T07:51:35;100210.30;;;10.01;100.00
29063;BME280;71206;48.564;-123.458;2023-12-20T07:54:03;100211.88;;;10.13;100.00
29063;BME280;71206;48.564;-123.458;2023-12-20T07:56:27;100213.65;;;10.28;100.00
29063;BME280;71206;48.564;-123.458;2023-12-20T07:58:53;100217.52;;;10.07;100.00
29063;BME280;71206;48.564;-123.458;2023-12-20T08:01:18;100221.42;;;10.28;100.00
29063;BME280;71206;48.564;-123.458;2023-12-20T08:03:43;100220.86;;;10.42;100.00
29063;BME280;71206;48.564;-123.458;2023-12-20T08:06:10;100218.66;;;10.24;100.00
29063;BME280;71206;48.564;-123.458;2023-12-20T08:08:33;100217.07;;;10.21;100.00
29063;BME280;71206;48.564;-123.458;2023-12-20T08:11:02;100217.43;;;10.10;100.00
29063;BME280;71206;48.564;-123.458;2023-12-20T08:13:24;100219.04;;;10.39;100.00
29063;BME280;71206;48.564;-123.458;2023-12-20T08:15:50;100220.45;;;10.49;100.00
29063;BME280;71206;48.564;-123.458;2023-12-20T08:18:20;100220.42;;;10.20;100.00
29063;BME280;71206;48.564;-123.458;2023-12-20T08:20:43;100222.01;;;10.13;100.00
29063;BME280;71206;48.564;-123.458;2023-12-20T08:23:06;100224.01;;;10.19;100.00
29063;BME280;71206;48.564;-123.458;2023-12-20T08:25:31;100229.30;;;10.23;100.00
29063;BME280;71206;48.564;-123.458;2023-12-20T08:27:57;100231.93;;;10.28;100.00
29063;BME280;71206;48.564;-123.458;2023-12-20T08:30:23;100231.29;;;10.16;100.00
29063;BME280;71206;48.564;-123.458;2023-12-20T08:32:51;100234.88;;;10.40;100.00
29063;BME280;71206;48.564;-123.458;2023-12-20T08:35:14;100238.08;;;9.93;100.00
29063;BME280;71206;48.564;-123.458;2023-12-20T08:37:38;100242.78;;;10.49;100.00
29063;BME280;71206;48.564;-123.458;2023-12-20T08:40:06;100242.43;;;10.23;100.00
29063;BME280;71206;48.564;-123.458;2023-12-20T08:42:29;100245.32;;;10.22;100.00
29063;BME280;71206;48.564;-123.458;2023-12-20T08:44:55;100245.92;;;10.23;100.00
29063;BME280;71206;48.564;-123.458;2023-12-20T08:47:20;100244.97;;;10.28;100.00
29063;BME280;71206;48.564;-123.458;2023-12-20T08:49:47;100246.64;;;10.60;100.00
29063;BME280;71206;48.564;-123.458;2023-12-20T08:52:12;100248.14;;;10.06;100.00
29063;BME280;71206;48.564;-123.458;2023-12-20T08:54:37;100246.50;;;10.38;100.00
29063;BME280;71206;48.564;-123.458;2023-12-20T08:57:03;100249.01;;;10.03;100.00
29063;BME280;71206;48.564;-123.458;2023-12-20T08:59:29;100249.28;;;10.19;100.00
29063;BME280;71206;48.564;-123.458;2023-12-20T09:01:54;100250.86;;;10.46;100.00
29063;BME280;71206;48.564;-123.458;2023-12-20T09:04:19;100252.27;;;9.99;100.00
29063;BME280;71206;48.564;-123.458;2023-12-20T09:06:46;100261.02;;;9.51;100.00
29063;BME280;71206;48.564;-123.458;2023-12-20T09:09:10;100266.25;;;9.60;100.00
29063;BME280;71206;48.564;-123.458;2023-12-20T09:11:40;100266.73;;;9.15;100.00
29063;BME280;71206;48.564;-123.458;2023-12-20T09:14:03;100266.91;;;9.10;100.00
29063;BME280;71206;48.564;-123.458;2023-12-20T09:16:27;100261.89;;;9.78;100.00
29063;BME280;71206;48.564;-123.458;2023-12-20T09:18:54;100262.25;;;9.56;100.00
29063;BME280;71206;48.564;-123.458;2023-12-20T09:21:18;100267.34;;;9.43;100.00
29063;BME280;71206;48.564;-123.458;2023-12-20T09:23:43;100276.15;;;9.28;100.00
29063;BME280;71206;48.564;-123.458;2023-12-20T09:26:17;100282.14;;;9.34;100.00
29063;BME280;71206;48.564;-123.458;2023-12-20T09:28:35;100287.63;;;9.19;100.00
29063;BME280;71206;48.564;-123.458;2023-12-20T09:31:00;100286.27;;;9.99;100.00
29063;BME280;71206;48.564;-123.458;2023-12-20T09:33:25;100287.79;;;9.85;100.00
29063;BME280;71206;48.564;-123.458;2023-12-20T09:35:51;100291.92;;;9.41;100.00
29063;BME280;71206;48.564;-123.458;2023-12-20T09:38:17;100298.69;;;9.56;100.00
29063;BME280;71206;48.564;-123.458;2023-12-20T09:40:43;100298.13;;;9.37;100.00
29063;BME280;71206;48.564;-123.458;2023-12-20T09:43:11;100302.21;;;9.51;100.00
29063;BME280;71206;48.564;-123.458;2023-12-20T09:45:32;100300.44;;;9.46;100.00
29063;BME280;71206;48.564;-123.458;2023-12-20T09:47:59;100302.70;;;9.89;100.00
29063;BME280;71206;48.564;-123.458;2023-12-20T09:50:23;100300.85;;;9.51;100.00
29063;BME280;71206;48.564;-123.458;2023-12-20T09:52:54;100300.94;;;9.62;100.00
29063;BME280;71206;48.564;-123.458;2023-12-20T09:55:17;100303.63;;;9.23;100.00
29063;BME280;71206;48.564;-123.458;2023-12-20T09:57:40;100307.80;;;9.44;100.00
29063;BME280;71206;48.564;-123.458;2023-12-20T10:00:07;100310.62;;;9.33;100.00
29063;BME280;71206;48.564;-123.458;2023-12-20T10:02:32;100311.70;;;9.63;100.00
29063;BME280;71206;48.564;-123.458;2023-12-20T10:04:56;100309.45;;;9.57;100.00
29063;BME280;71206;48.564;-123.458;2023-12-20T10:07:26;100312.40;;;9.54;100.00
29063;BME280;71206;48.564;-123.458;2023-12-20T10:09:48;100321.21;;;9.73;100.00
29063;BME280;71206;48.564;-123.458;2023-12-20T10:12:13;100323.26;;;9.79;100.00
29063;BME280;71206;48.564;-123.458;2023-12-20T10:14:40;100321.86;;;10.10;100.00
29063;BME280;71206;48.564;-123.458;2023-12-20T10:17:05;100324.68;;;9.89;100.00
29063;BME280;71206;48.564;-123.458;2023-12-20T10:19:30;100329.50;;;9.87;100.00
29063;BME280;71206;48.564;-123.458;2023-12-20T10:21:55;100337.37;;;9.67;100.00
29063;BME280;71206;48.564;-123.458;2023-12-20T10:24:20;100341.58;;;9.90;100.00
29063;BME280;71206;48.564;-123.458;2023-12-20T10:26:46;100346.48;;;9.91;100.00
29063;BME280;71206;48.564;-123.458;2023-12-20T10:29:12;100349.48;;;10.10;100.00
29063;BME280;71206;48.564;-123.458;2023-12-20T10:31:42;100351.99;;;10.20;100.00
29063;BME280;71206;48.564;-123.458;2023-12-20T10:34:03;100357.92;;;10.08;100.00
29063;BME280;71206;48.564;-123.458;2023-12-20T10:36:29;100361.58;;;10.02;100.00
29063;BME280;71206;48.564;-123.458;2023-12-20T10:38:55;100359.67;;;10.30;100.00
29063;BME280;71206;48.564;-123.458;2023-12-20T10:41:20;100369.90;;;10.08;100.00
29063;BME280;71206;48.564;-123.458;2023-12-20T10:43:44;100369.90;;;10.06;100.00
29063;BME280;71206;48.564;-123.458;2023-12-20T10:46:11;100370.11;;;10.10;100.00
29063;BME280;71206;48.564;-123.458;2023-12-20T10:48:36;100382.36;;;9.63;100.00
29063;BME280;71206;48.564;-123.458;2023-12-20T10:51:02;100388.15;;;9.89;100.00
29063;BME280;71206;48.564;-123.458;2023-12-20T10:53:26;100388.78;;;10.27;100.00
29063;BME280;71206;48.564;-123.458;2023-12-20T10:55:55;100383.19;;;11.00;100.00
29063;BME280;71206;48.564;-123.458;2023-12-20T10:58:19;100393.12;;;9.75;100.00
29063;BME280;71206;48.564;-123.458;2023-12-20T11:00:45;100391.47;;;10.18;100.00
29063;BME280;71206;48.564;-123.458;2023-12-20T11:03:10;100392.71;;;9.28;100.00
29063;BME280;71206;48.564;-123.458;2023-12-20T11:05:53;100395.24;;;9.44;100.00
29063;BME280;71206;48.564;-123.458;2023-12-20T11:08:02;100399.20;;;9.77;100.00
29063;BME280;71206;48.564;-123.458;2023-12-20T11:10:30;100399.71;;;9.17;100.00
29063;BME280;71206;48.564;-123.458;2023-12-20T11:12:56;100397.39;;;9.76;100.00
29063;BME280;71206;48.564;-123.458;2023-12-20T11:15:16;100397.78;;;10.03;100.00
29063;BME280;71206;48.564;-123.458;2023-12-20T11:17:46;100396.69;;;10.07;100.00
29063;BME280;71206;48.564;-123.458;2023-12-20T11:20:09;100397.22;;;9.86;100.00
29063;BME280;71206;48.564;-123.458;2023-12-20T11:22:32;100400.81;;;10.18;100.00
29063;BME280;71206;48.564;-123.458;2023-12-20T11:25:03;100402.87;;;10.11;100.00
29063;BME280;71206;48.564;-123.458;2023-12-20T11:27:22;100403.06;;;10.29;100.00
29063;BME280;71206;48.564;-123.458;2023-12-20T11:29:52;100407.31;;;10.07;100.00
29063;BME280;71206;48.564;-123.458;2023-12-20T11:34:38;100418.23;;;9.99;100.00
29063;BME280;71206;48.564;-123.458;2023-12-20T11:37:05;100423.06;;;9.84;100.00
29063;BME280;71206;48.564;-123.458;2023-12-20T11:39:31;100425.91;;;9.80;100.00
29063;BME280;71206;48.564;-123.458;2023-12-20T11:41:56;100427.11;;;9.90;100.00
29063;BME280;71206;48.564;-123.458;2023-12-20T11:44:21;100428.27;;;10.21;100.00
29063;BME280;71206;48.564;-123.458;2023-12-20T11:46:46;100429.08;;;10.09;100.00
29063;BME280;71206;48.564;-123.458;2023-12-20T11:49:11;100428.17;;;9.89;100.00
29063;BME280;71206;48.564;-123.458;2023-12-20T11:51:42;100428.51;;;9.98;100.00
29063;BME280;71206;48.564;-123.458;2023-12-20T11:54:06;100428.22;;;9.89;100.00
29063;BME280;71206;48.564;-123.458;2023-12-20T11:56:27;100429.48;;;9.94;100.00
29063;BME280;71206;48.564;-123.458;2023-12-20T11:58:54;100437.75;;;9.69;100.00
29063;BME280;71206;48.564;-123.458;2023-12-20T12:01:20;100446.66;;;9.89;100.00
29063;BME280;71206;48.564;-123.458;2023-12-20T12:03:45;100445.05;;;9.95;100.00
29063;BME280;71206;48.564;-123.458;2023-12-20T12:06:09;100442.85;;;9.90;100.00
29063;BME280;71206;48.564;-123.458;2023-12-20T12:08:34;100441.17;;;10.06;100.00
29063;BME280;71206;48.564;-123.458;2023-12-20T12:11:02;100442.79;;;9.67;100.00